sensor_id;sensor_type;location;lat;lon;timestamp;temperature;humidity
22192;DHT22;11261;52.456;10.850;2023-02-15T00:00:07;1.50;99.90
22192;DHT22;11261;52.456;10.850;2023-02-15T00:02:37;1.40;99.90
22192;DHT22;11261;52.456;10.850;2023-02-15T00:05:06;1.50;99.90
22192;DHT22;11261;52.456;10.850;2023-02-15T00:07:34;1.50;99.90
22192;DHT22;11261;52.456;10.850;2023-02-15T00:10:04;1.60;99.90
22192;DHT22;11261;52.456;10.850;2023-02-15T00:12:32;1.60;99.90
22192;DHT22;11261;52.456;10.850;2023-02-15T00:15:02;1.60;99.90
22192;DHT22;11261;52.456;10.850;2023-02-15T00:17:30;1.70;99.90
22192;DHT22;11261;52.456;10.850;2023-02-15T00:19:59;1.80;99.90
22192;DHT22;11261;52.456;10.850;2023-02-15T00:22:27;1.80;99.90
22192;DHT22;11261;52.456;10.850;2023-02-15T00:24:55;1.80;99.90
22192;DHT22;11261;52.456;10.850;2023-02-15T00:27:24;1.90;99.90
22192;DHT22;11261;52.456;10.850;2023-02-15T00:29:52;1.80;99.90
22192;DHT22;11261;52.456;10.850;2023-02-15T00:32:21;1.80;99.90
22192;DHT22;11261;52.456;10.850;2023-02-15T00:34:49;1.50;99.90
22192;DHT22;11261;52.456;10.850;2023-02-15T00:37:18;1.20;99.90
22192;DHT22;11261;52.456;10.850;2023-02-15T00:39:46;1.10;99.90
22192;DHT22;11261;52.456;10.850;2023-02-15T00:42:14;1.10;99.90
22192;DHT22;11261;52.456;10.850;2023-02-15T00:44:42;0.90;99.90
22192;DHT22;11261;52.456;10.850;2023-02-15T00:47:11;0.90;99.90
22192;DHT22;11261;52.456;10.850;2023-02-15T00:49:41;0.60;99.90
22192;DHT22;11261;52.456;10.850;2023-02-15T00:52:09;0.50;99.90
22192;DHT22;11261;52.456;10.850;2023-02-15T00:54:37;0.50;99.90
22192;DHT22;11261;52.456;10.850;2023-02-15T00:57:06;0.70;99.90
22192;DHT22;11261;52.456;10.850;2023-02-15T00:59:34;1.00;99.90
22192;DHT22;11261;52.456;10.850;2023-02-15T01:02:03;1.10;99.90
22192;DHT22;11261;52.456;10.850;2023-02-15T01:04:31;1.30;99.90
22192;DHT22;11261;52.456;10.850;2023-02-15T01:07:01;1.40;99.90
22192;DHT22;11261;52.456;10.850;2023-02-15T01:09:30;1.30;99.90
22192;DHT22;11261;52.456;10.850;2023-02-15T01:11:58;1.40;99.90
22192;DHT22;11261;52.456;10.850;2023-02-15T01:14:26;1.40;99.90
22192;DHT22;11261;52.456;10.850;2023-02-15T01:16:55;1.30;99.90
22192;DHT22;11261;52.456;10.850;2023-02-15T01:19:23;1.10;99.90
22192;DHT22;11261;52.456;10.850;2023-02-15T01:21:51;0.80;99.90
22192;DHT22;11261;52.456;10.850;2023-02-15T01:24:21;0.90;99.90
22192;DHT22;11261;52.456;10.850;2023-02-15T01:26:49;1.00;99.90
22192;DHT22;11261;52.456;10.850;2023-02-15T01:29:18;1.10;99.90
22192;DHT22;11261;52.456;10.850;2023-02-15T01:31:46;0.90;99.90
22192;DHT22;11261;52.456;10.850;2023-02-15T01:34:14;0.60;99.90
22192;DHT22;11261;52.456;10.850;2023-02-15T01:36:43;0.60;99.90
22192;DHT22;11261;52.456;10.850;2023-02-15T01:39:11;0.30;99.90
22192;DHT22;11261;52.456;10.850;2023-02-15T01:41:40;0.50;99.90
22192;DHT22;11261;52.456;10.850;2023-02-15T01:44:45;0.70;99.90
22192;DHT22;11261;52.456;10.850;2023-02-15T01:47:17;0.80;99.90
22192;DHT22;11261;52.456;10.850;2023-02-15T01:49:46;0.70;99.90
22192;DHT22;11261;52.456;10.850;2023-02-15T01:52:17;0.90;99.90
22192;DHT22;11261;52.456;10.850;2023-02-15T01:54:47;0.90;99.90
22192;DHT22;11261;52.456;10.850;2023-02-15T01:57:19;0.90;99.90
22192;DHT22;11261;52.456;10.850;2023-02-15T01:59:53;0.80;99.90
22192;DHT22;11261;52.456;10.850;2023-02-15T02:02:22;1.00;99.90
22192;DHT22;11261;52.456;10.850;2023-02-15T02:04:54;0.80;99.90
22192;DHT22;11261;52.456;10.850;2023-02-15T02:07:27;0.70;99.90
22192;DHT22;11261;52.456;10.850;2023-02-15T02:09:56;0.50;99.90
22192;DHT22;11261;52.456;10.850;2023-02-15T02:12:26;0.20;99.90
22192;DHT22;11261;52.456;10.850;2023-02-15T02:18:46;0.10;99.90
22192;DHT22;11261;52.456;10.850;2023-02-15T02:24:38;0.20;99.90
22192;DHT22;11261;52.456;10.850;2023-02-15T02:27:30;0.50;99.90
22192;DHT22;11261;52.456;10.850;2023-02-15T02:30:30;0.50;99.90
22192;DHT22;11261;52.456;10.850;2023-02-15T02:33:15;0.70;99.90
22192;DHT22;11261;52.456;10.850;2023-02-15T02:35:49;0.80;99.90
22192;DHT22;11261;52.456;10.850;2023-02-15T02:38:28;0.80;99.90
22192;DHT22;11261;52.456;10.850;2023-02-15T02:41:07;0.90;99.90
22192;DHT22;11261;52.456;10.850;2023-02-15T02:43:47;0.90;99.90
22192;DHT22;11261;52.456;10.850;2023-02-15T02:46:20;1.00;99.90
22192;DHT22;11261;52.456;10.850;2023-02-15T02:48:51;1.00;99.90
22192;DHT22;11261;52.456;10.850;2023-02-15T02:51:20;1.00;99.90
22192;DHT22;11261;52.456;10.850;2023-02-15T02:53:53;0.90;99.90
22192;DHT22;11261;52.456;10.850;2023-02-15T02:56:27;0.70;99.90
22192;DHT22;11261;52.456;10.850;2023-02-15T02:58:59;0.50;99.90
22192;DHT22;11261;52.456;10.850;2023-02-15T03:01:36;0.40;99.90
22192;DHT22;11261;52.456;10.850;2023-02-15T03:04:10;0.10;99.90
22192;DHT22;11261;52.456;10.850;2023-02-15T03:06:44;0.00;99.90
22192;DHT22;11261;52.456;10.850;2023-02-15T03:09:19;-0.30;99.90
22192;DHT22;11261;52.456;10.850;2023-02-15T03:11:48;-0.30;99.90
22192;DHT22;11261;52.456;10.850;2023-02-15T03:14:18;-0.20;99.90
22192;DHT22;11261;52.456;10.850;2023-02-15T03:16:47;-0.10;99.90
22192;DHT22;11261;52.456;10.850;2023-02-15T03:19:21;0.00;99.90
22192;DHT22;11261;52.456;10.850;2023-02-15T03:21:53;0.00;99.90
22192;DHT22;11261;52.456;10.850;2023-02-15T03:24:33;0.20;99.90
22192;DHT22;11261;52.456;10.850;2023-02-15T03:27:05;0.00;99.90
22192;DHT22;11261;52.456;10.850;2023-02-15T03:29:34;0.10;99.90
22192;DHT22;11261;52.456;10.850;2023-02-15T03:32:05;0.20;99.90
22192;DHT22;11261;52.456;10.850;2023-02-15T03:34:36;0.20;99.90
22192;DHT22;11261;52.456;10.850;2023-02-15T03:37:10;0.30;99.90
22192;DHT22;11261;52.456;10.850;2023-02-15T03:39:44;0.20;99.90
22192;DHT22;11261;52.456;10.850;2023-02-15T03:42:16;0.10;99.90
22192;DHT22;11261;52.456;10.850;2023-02-15T03:44:50;0.00;99.90
22192;DHT22;11261;52.456;10.850;2023-02-15T03:47:24;-0.10;99.90
22192;DHT22;11261;52.456;10.850;2023-02-15T03:49:57;-0.30;99.90
22192;DHT22;11261;52.456;10.850;2023-02-15T03:52:28;-0.30;99.90
22192;DHT22;11261;52.456;10.850;2023-02-15T03:54:56;-0.30;99.90
22192;DHT22;11261;52.456;10.850;2023-02-15T03:57:27;-0.20;99.90
22192;DHT22;11261;52.456;10.850;2023-02-15T04:00:15;0.00;99.90
22192;DHT22;11261;52.456;10.850;2023-02-15T04:03:22;0.00;99.90
22192;DHT22;11261;52.456;10.850;2023-02-15T04:05:52;0.10;99.90
22192;DHT22;11261;52.456;10.850;2023-02-15T04:08:21;0.10;99.90
22192;DHT22;11261;52.456;10.850;2023-02-15T04:11:09;0.30;99.90
22192;DHT22;11261;52.456;10.850;2023-02-15T04:13:37;0.30;99.90
22192;DHT22;11261;52.456;10.850;2023-02-15T04:16:05;0.30;99.90
22192;DHT22;11261;52.456;10.850;2023-02-15T04:18:36;0.40;99.90
22192;DHT22;11261;52.456;10.850;2023-02-15T04:21:25;0.10;99.90
22192;DHT22;11261;52.456;10.850;2023-02-15T04:24:11;-0.20;99.90
22192;DHT22;11261;52.456;10.850;2023-02-15T04:26:58;0.00;99.90
22192;DHT22;11261;52.456;10.850;2023-02-15T04:29:26;0.10;99.90
22192;DHT22;11261;52.456;10.850;2023-02-15T04:31:57;0.10;99.90
22192;DHT22;11261;52.456;10.850;2023-02-15T04:34:26;0.20;99.90
22192;DHT22;11261;52.456;10.850;2023-02-15T04:36:56;0.20;99.90
22192;DHT22;11261;52.456;10.850;2023-02-15T04:39:24;0.30;99.90
22192;DHT22;11261;52.456;10.850;2023-02-15T04:41:52;0.20;99.90
22192;DHT22;11261;52.456;10.850;2023-02-15T04:44:20;0.30;99.90
22192;DHT22;11261;52.456;10.850;2023-02-15T04:46:49;0.20;99.90
22192;DHT22;11261;52.456;10.850;2023-02-15T04:49:17;0.10;99.90
22192;DHT22;11261;52.456;10.850;2023-02-15T04:51:45;-0.40;99.90
22192;DHT22;11261;52.456;10.850;2023-02-15T04:54:15;-0.40;99.90
22192;DHT22;11261;52.456;10.850;2023-02-15T04:56:43;-0.70;99.90
22192;DHT22;11261;52.456;10.850;2023-02-15T04:59:11;-0.70;99.90
22192;DHT22;11261;52.456;10.850;2023-02-15T05:01:40;-0.70;99.90
22192;DHT22;11261;52.456;10.850;2023-02-15T05:04:08;-0.50;99.90
22192;DHT22;11261;52.456;10.850;2023-02-15T05:06:36;-0.40;99.90
22192;DHT22;11261;52.456;10.850;2023-02-15T05:09:05;-0.50;99.90
22192;DHT22;11261;52.456;10.850;2023-02-15T05:11:34;-0.80;99.90
22192;DHT22;11261;52.456;10.850;2023-02-15T05:14:03;-0.80;99.90
22192;DHT22;11261;52.456;10.850;2023-02-15T05:16:31;-0.90;99.90
22192;DHT22;11261;52.456;10.850;2023-02-15T05:19:00;-0.80;99.90
22192;DHT22;11261;52.456;10.850;2023-02-15T05:21:28;-1.00;99.90
22192;DHT22;11261;52.456;10.850;2023-02-15T05:23:57;-1.10;99.90
22192;DHT22;11261;52.456;10.850;2023-02-15T05:26:25;-1.00;99.90
22192;DHT22;11261;52.456;10.850;2023-02-15T05:29:12;-1.00;99.90
22192;DHT22;11261;52.456;10.850;2023-02-15T05:31:40;-0.80;99.90
22192;DHT22;11261;52.456;10.850;2023-02-15T05:34:11;-1.00;99.90
22192;DHT22;11261;52.456;10.850;2023-02-15T05:36:39;-1.10;99.90
22192;DHT22;11261;52.456;10.850;2023-02-15T05:39:07;-0.80;99.90
22192;DHT22;11261;52.456;10.850;2023-02-15T05:41:35;-0.70;99.90
22192;DHT22;11261;52.456;10.850;2023-02-15T05:44:04;-0.70;99.90
22192;DHT22;11261;52.456;10.850;2023-02-15T05:46:33;-0.70;99.90
22192;DHT22;11261;52.456;10.850;2023-02-15T05:49:01;-0.50;99.90
22192;DHT22;11261;52.456;10.850;2023-02-15T05:51:30;-0.60;99.90
22192;DHT22;11261;52.456;10.850;2023-02-15T05:53:58;-0.50;99.90
22192;DHT22;11261;52.456;10.850;2023-02-15T05:56:26;-0.60;99.90
22192;DHT22;11261;52.456;10.850;2023-02-15T05:58:54;-0.80;99.90
22192;DHT22;11261;52.456;10.850;2023-02-15T06:01:22;-0.90;99.90
22192;DHT22;11261;52.456;10.850;2023-02-15T06:03:52;-0.60;99.90
22192;DHT22;11261;52.456;10.850;2023-02-15T06:06:21;-0.40;99.90
22192;DHT22;11261;52.456;10.850;2023-02-15T06:08:50;-0.50;99.90
22192;DHT22;11261;52.456;10.850;2023-02-15T06:11:18;-0.50;99.90
22192;DHT22;11261;52.456;10.850;2023-02-15T06:13:46;-0.50;99.90
22192;DHT22;11261;52.456;10.850;2023-02-15T06:16:14;-0.50;99.90
22192;DHT22;11261;52.456;10.850;2023-02-15T06:18:43;-0.40;99.90
22192;DHT22;11261;52.456;10.850;2023-02-15T06:21:12;-0.50;99.90
22192;DHT22;11261;52.456;10.850;2023-02-15T06:23:40;-0.70;99.90
22192;DHT22;11261;52.456;10.850;2023-02-15T06:26:09;-0.60;99.90
22192;DHT22;11261;52.456;10.850;2023-02-15T06:28:38;-0.70;99.90
22192;DHT22;11261;52.456;10.850;2023-02-15T06:31:07;-0.80;99.90
22192;DHT22;11261;52.456;10.850;2023-02-15T06:33:36;-0.70;99.90
22192;DHT22;11261;52.456;10.850;2023-02-15T06:36:05;-0.50;99.90
22192;DHT22;11261;52.456;10.850;2023-02-15T06:38:34;-0.80;99.90
22192;DHT22;11261;52.456;10.850;2023-02-15T06:41:03;-0.70;99.90
22192;DHT22;11261;52.456;10.850;2023-02-15T06:43:31;-0.70;99.90
22192;DHT22;11261;52.456;10.850;2023-02-15T06:46:00;-0.50;99.90
22192;DHT22;11261;52.456;10.850;2023-02-15T06:48:30;-0.60;99.90
22192;DHT22;11261;52.456;10.850;2023-02-15T06:50:58;-0.60;99.90
22192;DHT22;11261;52.456;10.850;2023-02-15T06:53:26;-0.70;99.90
22192;DHT22;11261;52.456;10.850;2023-02-15T06:56:01;-0.70;99.90
22192;DHT22;11261;52.456;10.850;2023-02-15T06:58:33;-0.60;99.90
22192;DHT22;11261;52.456;10.850;2023-02-15T07:01:02;-0.70;99.90
22192;DHT22;11261;52.456;10.850;2023-02-15T07:03:30;-0.70;99.90
22192;DHT22;11261;52.456;10.850;2023-02-15T07:06:00;-0.70;99.90
22192;DHT22;11261;52.456;10.850;2023-02-15T07:08:30;-0.80;99.90
22192;DHT22;11261;52.456;10.850;2023-02-15T07:10:58;-0.80;99.90
22192;DHT22;11261;52.456;10.850;2023-02-15T07:13:48;-1.00;99.90
22192;DHT22;11261;52.456;10.850;2023-02-15T07:16:15;-1.40;99.90
22192;DHT22;11261;52.456;10.850;2023-02-15T07:18:43;-1.40;99.90
22192;DHT22;11261;52.456;10.850;2023-02-15T07:21:11;-1.50;99.90
22192;DHT22;11261;52.456;10.850;2023-02-15T07:23:40;-1.50;99.90
22192;DHT22;11261;52.456;10.850;2023-02-15T07:26:08;-1.10;99.90
22192;DHT22;11261;52.456;10.850;2023-02-15T07:28:36;-1.30;99.90
22192;DHT22;11261;52.456;10.850;2023-02-15T07:31:06;-1.10;99.90
22192;DHT22;11261;52.456;10.850;2023-02-15T07:33:35;-1.40;99.90
22192;DHT22;11261;52.456;10.850;2023-02-15T07:36:04;-1.20;99.90
22192;DHT22;11261;52.456;10.850;2023-02-15T07:38:34;-1.30;99.90
22192;DHT22;11261;52.456;10.850;2023-02-15T07:41:04;-1.00;99.90
22192;DHT22;11261;52.456;10.850;2023-02-15T07:43:34;-1.20;99.90
22192;DHT22;11261;52.456;10.850;2023-02-15T07:46:04;-1.20;99.90
22192;DHT22;11261;52.456;10.850;2023-02-15T07:48:36;-1.30;99.90
22192;DHT22;11261;52.456;10.850;2023-02-15T07:51:08;-1.20;99.90
22192;DHT22;11261;52.456;10.850;2023-02-15T07:53:38;-1.20;99.90
22192;DHT22;11261;52.456;10.850;2023-02-15T07:56:08;-1.10;99.90
22192;DHT22;11261;52.456;10.850;2023-02-15T07:58:36;-1.10;99.90
22192;DHT22;11261;52.456;10.850;2023-02-15T08:01:24;-0.90;99.90
22192;DHT22;11261;52.456;10.850;2023-02-15T08:03:54;-0.60;99.90
22192;DHT22;11261;52.456;10.850;2023-02-15T08:06:27;-0.40;99.90
22192;DHT22;11261;52.456;10.850;2023-02-15T08:08:55;-0.60;99.90
22192;DHT22;11261;52.456;10.850;2023-02-15T08:11:25;-0.60;99.90
22192;DHT22;11261;52.456;10.850;2023-02-15T08:13:57;-0.40;99.90
22192;DHT22;11261;52.456;10.850;2023-02-15T08:16:29;0.10;99.90
22192;DHT22;11261;52.456;10.850;2023-02-15T08:19:00;0.30;99.90
22192;DHT22;11261;52.456;10.850;2023-02-15T08:21:29;0.40;99.90
22192;DHT22;11261;52.456;10.850;2023-02-15T08:23:58;0.60;99.90
22192;DHT22;11261;52.456;10.850;2023-02-15T08:26:28;0.80;99.90
22192;DHT22;11261;52.456;10.850;2023-02-15T08:28:58;0.80;99.90
22192;DHT22;11261;52.456;10.850;2023-02-15T08:31:26;0.90;99.90
22192;DHT22;11261;52.456;10.850;2023-02-15T08:33:56;0.90;99.90
22192;DHT22;11261;52.456;10.850;2023-02-15T08:36:27;0.90;99.90
22192;DHT22;11261;52.456;10.850;2023-02-15T08:38:57;1.10;99.90
22192;DHT22;11261;52.456;10.850;2023-02-15T08:41:27;0.60;99.90
22192;DHT22;11261;52.456;10.850;2023-02-15T08:43:58;0.50;99.90
22192;DHT22;11261;52.456;10.850;2023-02-15T08:46:27;0.70;99.90
22192;DHT22;11261;52.456;10.850;2023-02-15T08:48:56;0.70;99.90
22192;DHT22;11261;52.456;10.850;2023-02-15T08:51:28;1.00;99.90
22192;DHT22;11261;52.456;10.850;2023-02-15T08:53:58;1.20;99.90
22192;DHT22;11261;52.456;10.850;2023-02-15T08:56:28;1.40;99.90
22192;DHT22;11261;52.456;10.850;2023-02-15T08:58:56;1.60;99.90
22192;DHT22;11261;52.456;10.850;2023-02-15T09:01:26;0.90;99.90
22192;DHT22;11261;52.456;10.850;2023-02-15T09:03:56;0.80;99.90
22192;DHT22;11261;52.456;10.850;2023-02-15T09:06:28;0.90;99.90
22192;DHT22;11261;52.456;10.850;2023-02-15T09:08:57;1.40;99.90
22192;DHT22;11261;52.456;10.850;2023-02-15T09:11:26;1.80;99.90
22192;DHT22;11261;52.456;10.850;2023-02-15T09:13:56;1.60;99.90
22192;DHT22;11261;52.456;10.850;2023-02-15T09:16:27;1.30;99.90
22192;DHT22;11261;52.456;10.850;2023-02-15T09:18:56;1.50;99.90
22192;DHT22;11261;52.456;10.850;2023-02-15T09:21:27;1.20;99.90
22192;DHT22;11261;52.456;10.850;2023-02-15T09:23:57;1.00;99.90
22192;DHT22;11261;52.456;10.850;2023-02-15T09:26:28;1.10;99.90
22192;DHT22;11261;52.456;10.850;2023-02-15T09:28:58;1.80;99.90
22192;DHT22;11261;52.456;10.850;2023-02-15T09:31:29;2.10;99.90
22192;DHT22;11261;52.456;10.850;2023-02-15T09:33:58;2.10;99.90
22192;DHT22;11261;52.456;10.850;2023-02-15T09:36:32;2.40;99.90
22192;DHT22;11261;52.456;10.850;2023-02-15T09:39:06;2.60;99.90
22192;DHT22;11261;52.456;10.850;2023-02-15T09:42:00;2.20;99.90
22192;DHT22;11261;52.456;10.850;2023-02-15T09:44:46;2.40;99.90
22192;DHT22;11261;52.456;10.850;2023-02-15T09:47:31;2.80;99.90
22192;DHT22;11261;52.456;10.850;2023-02-15T09:50:08;2.90;99.90
22192;DHT22;11261;52.456;10.850;2023-02-15T09:52:50;2.80;99.90
22192;DHT22;11261;52.456;10.850;2023-02-15T09:55:39;2.90;99.90
22192;DHT22;11261;52.456;10.850;2023-02-15T09:58:15;3.40;99.90
22192;DHT22;11261;52.456;10.850;2023-02-15T10:00:52;3.40;99.90
22192;DHT22;11261;52.456;10.850;2023-02-15T10:03:36;3.40;99.90
22192;DHT22;11261;52.456;10.850;2023-02-15T10:06:30;3.20;99.90
22192;DHT22;11261;52.456;10.850;2023-02-15T10:09:10;3.50;99.90
22192;DHT22;11261;52.456;10.850;2023-02-15T10:11:51;3.90;99.90
22192;DHT22;11261;52.456;10.850;2023-02-15T10:14:42;4.00;99.90
22192;DHT22;11261;52.456;10.850;2023-02-15T10:17:26;4.10;99.90
22192;DHT22;11261;52.456;10.850;2023-02-15T10:20:04;4.40;99.90
22192;DHT22;11261;52.456;10.850;2023-02-15T10:22:45;4.90;99.90
22192;DHT22;11261;52.456;10.850;2023-02-15T10:25:28;5.40;99.90
22192;DHT22;11261;52.456;10.850;2023-02-15T10:28:05;5.20;99.90
22192;DHT22;11261;52.456;10.850;2023-02-15T10:30:40;4.40;99.90
22192;DHT22;11261;52.456;10.850;2023-02-15T10:33:18;4.90;99.90
22192;DHT22;11261;52.456;10.850;2023-02-15T10:35:51;5.80;99.90
22192;DHT22;11261;52.456;10.850;2023-02-15T10:38:29;5.60;99.90
22192;DHT22;11261;52.456;10.850;2023-02-15T10:41:09;5.60;99.90
22192;DHT22;11261;52.456;10.850;2023-02-15T10:43:55;5.50;99.90
22192;DHT22;11261;52.456;10.850;2023-02-15T10:46:48;4.70;99.90
22192;DHT22;11261;52.456;10.850;2023-02-15T10:49:46;5.10;99.90
22192;DHT22;11261;52.456;10.850;2023-02-15T10:52:25;5.30;99.90
22192;DHT22;11261;52.456;10.850;2023-02-15T10:55:05;4.80;99.90
22192;DHT22;11261;52.456;10.850;2023-02-15T10:57:48;5.30;99.90
22192;DHT22;11261;52.456;10.850;2023-02-15T11:00:23;5.60;99.90
22192;DHT22;11261;52.456;10.850;2023-02-15T11:03:11;5.20;99.90
22192;DHT22;11261;52.456;10.850;2023-02-15T11:05:49;5.70;99.90
22192;DHT22;11261;52.456;10.850;2023-02-15T11:08:23;5.40;99.90
22192;DHT22;11261;52.456;10.850;2023-02-15T11:10:55;5.30;99.90
22192;DHT22;11261;52.456;10.850;2023-02-15T11:13:32;5.60;99.90
22192;DHT22;11261;52.456;10.850;2023-02-15T11:16:04;5.90;99.90
22192;DHT22;11261;52.456;10.850;2023-02-15T11:18:36;6.00;99.90
22192;DHT22;11261;52.456;10.850;2023-02-15T11:21:09;6.20;99.90
22192;DHT22;11261;52.456;10.850;2023-02-15T11:23:42;6.50;99.90
22192;DHT22;11261;52.456;10.850;2023-02-15T11:26:15;6.30;99.90
22192;DHT22;11261;52.456;10.850;2023-02-15T11:28:50;6.00;99.90
22192;DHT22;11261;52.456;10.850;2023-02-15T11:31:22;6.30;99.90
22192;DHT22;11261;52.456;10.850;2023-02-15T11:33:53;6.90;99.90
22192;DHT22;11261;52.456;10.850;2023-02-15T11:36:25;7.00;99.90
22192;DHT22;11261;52.456;10.850;2023-02-15T11:38:59;6.80;99.90
22192;DHT22;11261;52.456;10.850;2023-02-15T11:41:33;7.00;99.90
22192;DHT22;11261;52.456;10.850;2023-02-15T11:44:07;7.70;99.90
22192;DHT22;11261;52.456;10.850;2023-02-15T11:46:38;7.80;99.90
22192;DHT22;11261;52.456;10.850;2023-02-15T11:49:20;8.20;99.90
22192;DHT22;11261;52.456;10.850;2023-02-15T11:51:50;8.60;99.90
22192;DHT22;11261;52.456;10.850;2023-02-15T11:54:23;8.20;99.90
22192;DHT22;11261;52.456;10.850;2023-02-15T11:56:53;8.30;99.90
22192;DHT22;11261;52.456;10.850;2023-02-15T11:59:28;8.50;99.90
22192;DHT22;11261;52.456;10.850;2023-02-15T12:01:58;8.80;99.90
22192;DHT22;11261;52.456;10.850;2023-02-15T12:04:29;8.90;99.90
22192;DHT22;11261;52.456;10.850;2023-02-15T12:07:00;8.30;99.90
22192;DHT22;11261;52.456;10.850;2023-02-15T12:09:34;8.70;99.90
22192;DHT22;11261;52.456;10.850;2023-02-15T12:12:25;9.10;99.90
22192;DHT22;11261;52.456;10.850;2023-02-15T12:14:56;8.40;99.90
22192;DHT22;11261;52.456;10.850;2023-02-15T12:17:26;8.00;99.90
22192;DHT22;11261;52.456;10.850;2023-02-15T12:19:57;8.20;99.90
22192;DHT22;11261;52.456;10.850;2023-02-15T12:22:29;8.00;99.90
22192;DHT22;11261;52.456;10.850;2023-02-15T12:25:00;8.20;99.90
22192;DHT22;11261;52.456;10.850;2023-02-15T12:27:30;8.00;99.90
22192;DHT22;11261;52.456;10.850;2023-02-15T12:30:04;8.10;99.90
22192;DHT22;11261;52.456;10.850;2023-02-15T12:32:36;7.90;99.90
22192;DHT22;11261;52.456;10.850;2023-02-15T12:35:16;8.30;99.90
22192;DHT22;11261;52.456;10.850;2023-02-15T12:37:54;8.70;99.90
22192;DHT22;11261;52.456;10.850;2023-02-15T12:40:24;9.10;99.90
22192;DHT22;11261;52.456;10.850;2023-02-15T12:42:57;9.20;99.90
22192;DHT22;11261;52.456;10.850;2023-02-15T12:45:28;9.00;99.90
22192;DHT22;11261;52.456;10.850;2023-02-15T12:48:14;9.20;99.90
22192;DHT22;11261;52.456;10.850;2023-02-15T12:50:43;9.40;99.90
22192;DHT22;11261;52.456;10.850;2023-02-15T12:53:15;9.30;99.90
22192;DHT22;11261;52.456;10.850;2023-02-15T12:55:54;9.20;99.90
22192;DHT22;11261;52.456;10.850;2023-02-15T12:58:23;9.40;99.90
22192;DHT22;11261;52.456;10.850;2023-02-15T13:01:11;9.60;99.90
22192;DHT22;11261;52.456;10.850;2023-02-15T13:03:55;10.00;99.90
22192;DHT22;11261;52.456;10.850;2023-02-15T13:06:24;10.10;99.90
22192;DHT22;11261;52.456;10.850;2023-02-15T13:08:55;10.20;99.90
22192;DHT22;11261;52.456;10.850;2023-02-15T13:11:27;10.10;99.90
22192;DHT22;11261;52.456;10.850;2023-02-15T13:14:03;9.90;99.90
22192;DHT22;11261;52.456;10.850;2023-02-15T13:16:37;10.20;99.90
22192;DHT22;11261;52.456;10.850;2023-02-15T13:19:10;10.40;99.90
22192;DHT22;11261;52.456;10.850;2023-02-15T13:21:43;10.60;99.90
22192;DHT22;11261;52.456;10.850;2023-02-15T13:24:18;10.70;99.90
22192;DHT22;11261;52.456;10.850;2023-02-15T13:26:49;10.70;99.90
22192;DHT22;11261;52.456;10.850;2023-02-15T13:29:22;10.90;99.90
22192;DHT22;11261;52.456;10.850;2023-02-15T13:31:53;10.80;99.90
22192;DHT22;11261;52.456;10.850;2023-02-15T13:34:25;10.60;99.90
22192;DHT22;11261;52.456;10.850;2023-02-15T13:36:57;10.50;99.90
22192;DHT22;11261;52.456;10.850;2023-02-15T13:39:34;10.70;99.90
22192;DHT22;11261;52.456;10.850;2023-02-15T13:42:18;10.50;99.90
22192;DHT22;11261;52.456;10.850;2023-02-15T13:45:01;10.60;99.90
22192;DHT22;11261;52.456;10.850;2023-02-15T13:47:43;11.10;99.90
22192;DHT22;11261;52.456;10.850;2023-02-15T13:50:29;11.30;99.90
22192;DHT22;11261;52.456;10.850;2023-02-15T13:53:13;11.40;99.90
22192;DHT22;11261;52.456;10.850;2023-02-15T13:55:51;11.50;99.90
22192;DHT22;11261;52.456;10.850;2023-02-15T14:01:27;11.40;99.90
22192;DHT22;11261;52.456;10.850;2023-02-15T14:07:24;11.50;99.90
22192;DHT22;11261;52.456;10.850;2023-02-15T14:10:06;11.40;99.90
22192;DHT22;11261;52.456;10.850;2023-02-15T14:12:56;11.50;99.90
22192;DHT22;11261;52.456;10.850;2023-02-15T14:15:34;11.60;99.90
22192;DHT22;11261;52.456;10.850;2023-02-15T14:18:15;11.60;99.90
22192;DHT22;11261;52.456;10.850;2023-02-15T14:21:02;11.40;99.90
22192;DHT22;11261;52.456;10.850;2023-02-15T14:23:45;11.50;99.90
22192;DHT22;11261;52.456;10.850;2023-02-15T14:26:21;11.40;99.90
22192;DHT22;11261;52.456;10.850;2023-02-15T14:28:58;11.60;99.90
22192;DHT22;11261;52.456;10.850;2023-02-15T14:31:34;11.60;99.90
22192;DHT22;11261;52.456;10.850;2023-02-15T14:34:03;11.70;99.90
22192;DHT22;11261;52.456;10.850;2023-02-15T14:36:34;11.70;99.90
22192;DHT22;11261;52.456;10.850;2023-02-15T14:39:17;11.70;99.90
22192;DHT22;11261;52.456;10.850;2023-02-15T14:42:14;11.50;99.90
22192;DHT22;11261;52.456;10.850;2023-02-15T14:44:48;11.80;99.90
22192;DHT22;11261;52.456;10.850;2023-02-15T14:47:24;11.60;99.90
22192;DHT22;11261;52.456;10.850;2023-02-15T14:49:54;11.60;99.90
22192;DHT22;11261;52.456;10.850;2023-02-15T14:52:24;11.50;99.90
22192;DHT22;11261;52.456;10.850;2023-02-15T14:54:57;11.70;99.90
22192;DHT22;11261;52.456;10.850;2023-02-15T14:57:31;11.60;99.90
22192;DHT22;11261;52.456;10.850;2023-02-15T15:00:31;11.60;99.90
22192;DHT22;11261;52.456;10.850;2023-02-15T15:03:01;11.50;99.90
22192;DHT22;11261;52.456;10.850;2023-02-15T15:05:48;11.40;99.90
22192;DHT22;11261;52.456;10.850;2023-02-15T15:08:29;11.50;99.90
22192;DHT22;11261;52.456;10.850;2023-02-15T15:14:15;11.40;99.90
22192;DHT22;11261;52.456;10.850;2023-02-15T15:17:00;11.30;99.90
22192;DHT22;11261;52.456;10.850;2023-02-15T15:19:56;11.20;99.90
22192;DHT22;11261;52.456;10.850;2023-02-15T15:22:26;11.30;99.90
22192;DHT22;11261;52.456;10.850;2023-02-15T15:24:57;11.30;99.90
22192;DHT22;11261;52.456;10.850;2023-02-15T15:27:42;11.10;99.90
22192;DHT22;11261;52.456;10.850;2023-02-15T15:33:55;11.00;99.90
22192;DHT22;11261;52.456;10.850;2023-02-15T15:39:43;11.10;99.90
22192;DHT22;11261;52.456;10.850;2023-02-15T15:42:29;10.90;99.90
22192;DHT22;11261;52.456;10.850;2023-02-15T15:48:27;10.90;99.90
22192;DHT22;11261;52.456;10.850;2023-02-15T15:51:02;10.80;99.90
22192;DHT22;11261;52.456;10.850;2023-02-15T15:53:37;10.80;99.90
22192;DHT22;11261;52.456;10.850;2023-02-15T15:56:13;10.70;99.90
22192;DHT22;11261;52.456;10.850;2023-02-15T15:58:50;10.60;99.90
22192;DHT22;11261;52.456;10.850;2023-02-15T16:01:26;10.60;99.90
22192;DHT22;11261;52.456;10.850;2023-02-15T16:03:56;10.50;99.90
22192;DHT22;11261;52.456;10.850;2023-02-15T16:06:31;10.40;99.90
22192;DHT22;11261;52.456;10.850;2023-02-15T16:09:11;10.40;99.90
22192;DHT22;11261;52.456;10.850;2023-02-15T16:11:41;10.20;99.90
22192;DHT22;11261;52.456;10.850;2023-02-15T16:14:16;10.20;99.90
22192;DHT22;11261;52.456;10.850;2023-02-15T16:16:50;10.20;99.90
22192;DHT22;11261;52.456;10.850;2023-02-15T16:19:22;10.10;99.90
22192;DHT22;11261;52.456;10.850;2023-02-15T16:21:51;10.10;99.90
22192;DHT22;11261;52.456;10.850;2023-02-15T16:24:43;10.00;99.90
22192;DHT22;11261;52.456;10.850;2023-02-15T16:27:33;9.80;99.90
22192;DHT22;11261;52.456;10.850;2023-02-15T16:30:21;9.80;99.90